Time;durP1;ratioP1;P1;durP2;ratioP2;P2;SDS_P1;SDS_P2;PMS_P1;PMS_P2;Temp;Humidity;BMP_temperature;BMP_pressure;BME280_temperature;BME280_humidity;BME280_pressure;Samples;Min_cycle;Max_cycle;Signal;HPM_P1;HPM_P2
2023/10/19 00:01:11;;;;;;;16.45;7.47;;;8.30;99.90;;;;;;4248045;27;20047;-81
2023/10/19 00:03:12;;;;;;;14.38;8.40;;;8.20;99.90;;;;;;4237197;27;20039;-81
2023/10/19 00:05:15;;;;;;;15.23;7.90;;;8.50;99.90;;;;;;4247557;27;20090;-82
2023/10/19 00:07:16;;;;;;;14.07;7.55;;;8.20;99.90;;;;;;4241253;27;20047;-82
2023/10/19 00:09:17;;;;;;;17.63;8.02;;;8.60;99.90;;;;;;4248784;27;20110;-81
2023/10/19 00:11:22;;;;;;;15.77;8.90;;;8.20;99.90;;;;;;4246300;27;20472;-82
2023/10/19 00:13:22;;;;;;;16.95;8.77;;;8.20;99.90;;;;;;4233570;28;20819;-82
2023/10/19 00:15:26;;;;;;;14.13;8.00;;;8.20;99.90;;;;;;4233702;28;20049;-81
2023/10/19 00:17:28;;;;;;;16.85;9.25;;;8.50;99.90;;;;;;4239335;27;20110;-81
2023/10/19 00:19:30;;;;;;;14.43;8.27;;;8.50;99.90;;;;;;4244736;27;20066;-81
2023/10/19 00:21:43;;;;;;;15.50;7.97;;;8.30;99.90;;;;;;4239647;27;20075;-82
2023/10/19 00:23:47;;;;;;;14.43;8.55;;;8.20;99.90;;;;;;4242615;27;20499;-81
2023/10/19 00:25:54;;;;;;;15.32;8.40;;;8.50;99.90;;;;;;4242173;27;20089;-81
2023/10/19 00:27:55;;;;;;;18.98;10.23;;;8.50;99.90;;;;;;4240842;27;20069;-81
2023/10/19 00:30:05;;;;;;;19.77;8.32;;;8.20;99.90;;;;;;4243394;27;20126;-82
2023/10/19 00:32:12;;;;;;;16.63;8.07;;;8.20;99.90;;;;;;4239234;27;20040;-81
2023/10/19 00:34:13;;;;;;;17.55;9.05;;;8.50;99.90;;;;;;4246120;27;20518;-82
2023/10/19 00:36:14;;;;;;;15.88;8.32;;;8.50;99.90;;;;;;4219887;28;20082;-81
2023/10/19 00:38:27;;;;;;;21.58;8.52;;;8.10;99.90;;;;;;4245788;27;20043;-82
2023/10/19 00:40:34;;;;;;;15.27;7.45;;;8.10;99.90;;;;;;4235655;27;20514;-82
2023/10/19 00:42:38;;;;;;;14.52;8.35;;;8.20;99.90;;;;;;4248302;27;20047;-82
2023/10/19 00:44:43;;;;;;;18.75;9.55;;;8.10;99.90;;;;;;4216418;28;20051;-81
2023/10/19 00:46:49;;;;;;;15.38;8.48;;;8.10;99.90;;;;;;4250116;27;20047;-81
2023/10/19 00:48:59;;;;;;;19.33;8.70;;;8.10;99.90;;;;;;4233780;27;20161;-81
2023/10/19 00:51:09;;;;;;;14.82;8.32;;;8.10;99.90;;;;;;4247810;27;20175;-81
2023/10/19 00:53:12;;;;;;;17.17;9.93;;;8.40;99.90;;;;;;4236827;27;20483;-81
2023/10/19 00:55:14;;;;;;;15.25;8.88;;;8.00;99.90;;;;;;4232003;28;20500;-81
2023/10/19 00:57:19;;;;;;;16.13;8.63;;;8.30;99.90;;;;;;4228020;28;20062;-82
2023/10/19 00:59:54;;;;;;;13.68;7.88;;;8.70;99.90;;;;;;4238033;27;20043;-82
2023/10/19 01:01:53;;;;;;;17.33;9.35;;;8.10;99.90;;;;;;4244815;27;20039;-82
2023/10/19 01:03:56;;;;;;;19.42;9.00;;;8.60;99.90;;;;;;4241051;27;20100;-82
2023/10/19 01:05:57;;;;;;;14.95;8.55;;;8.00;99.90;;;;;;4243343;27;20039;-82
2023/10/19 01:08:02;;;;;;;16.50;8.85;;;8.20;99.90;;;;;;4249850;27;20035;-82
2023/10/19 01:10:05;;;;;;;17.33;8.75;;;8.00;99.90;;;;;;4220976;28;20067;-81
2023/10/19 01:12:25;;;;;;;20.25;8.88;;;8.00;99.90;;;;;;4243909;27;20043;-81
2023/10/19 01:14:27;;;;;;;17.38;8.55;;;8.00;99.90;;;;;;4235703;27;20531;-82
2023/10/19 01:16:28;;;;;;;16.77;9.20;;;8.00;99.90;;;;;;4247339;27;20075;-82
2023/10/19 01:18:32;;;;;;;20.13;8.63;;;8.10;99.90;;;;;;4217512;28;20131;-81
2023/10/19 01:20:42;;;;;;;16.75;9.00;;;8.20;99.90;;;;;;4248014;27;20150;-82
2023/10/19 01:25:12;;;;;;;16.83;9.02;;;8.00;99.90;;;;;;4236275;27;20043;-82
2023/10/19 01:27:13;;;;;;;14.13;8.32;;;8.20;99.90;;;;;;4227992;28;20048;-82
2023/10/19 01:29:25;;;;;;;18.15;8.77;;;8.20;99.90;;;;;;4236718;27;20035;-82
2023/10/19 01:33:30;;;;;;;16.50;8.32;;;8.50;99.90;;;;;;4243270;27;20048;-81
2023/10/19 01:36:10;;;;;;;16.33;9.35;;;8.00;99.90;;;;;;4239058;27;20047;-82
2023/10/19 01:37:52;;;;;;;16.98;10.13;;;8.10;99.90;;;;;;4239959;27;20047;-82
2023/10/19 01:39:53;;;;;;;20.10;9.23;;;8.60;99.90;;;;;;4241558;27;20088;-81
2023/10/19 01:41:54;;;;;;;22.20;9.82;;;8.50;99.90;;;;;;4221769;28;20120;-81
2023/10/19 01:43:55;;;;;;;19.73;9.48;;;8.30;99.90;;;;;;4242150;27;20424;-82
2023/10/19 01:45:56;;;;;;;17.08;9.48;;;8.00;99.90;;;;;;4239317;27;20044;-82
2023/10/19 01:47:59;;;;;;;18.75;9.32;;;8.00;99.90;;;;;;4242643;27;20126;-82
2023/10/19 01:49:59;;;;;;;18.77;9.68;;;8.00;99.90;;;;;;4238923;27;20116;-82
2023/10/19 01:52:00;;;;;;;18.33;10.35;;;8.50;99.90;;;;;;4242292;27;20130;-82
2023/10/19 01:54:07;;;;;;;17.85;9.65;;;8.00;99.90;;;;;;4237445;27;20173;-81
2023/10/19 01:56:10;;;;;;;16.92;8.77;;;8.00;99.90;;;;;;4225557;28;20052;-81
2023/10/19 01:58:11;;;;;;;17.52;9.73;;;8.00;99.90;;;;;;4237230;27;20044;-81
2023/10/19 02:00:22;;;;;;;18.05;9.55;;;8.40;99.90;;;;;;4225648;28;20444;-81
2023/10/19 02:02:23;;;;;;;21.20;9.45;;;8.00;99.90;;;;;;4241269;27;20047;-81
2023/10/19 02:04:25;;;;;;;17.00;9.82;;;8.00;99.90;;;;;;4230992;28;20052;-81
2023/10/19 02:08:38;;;;;;;18.98;9.30;;;7.90;99.90;;;;;;4247561;27;20486;-81
2023/10/19 02:10:41;;;;;;;16.20;9.95;;;8.30;99.90;;;;;;4232688;27;20127;-81
2023/10/19 02:12:42;;;;;;;16.60;9.35;;;7.90;99.90;;;;;;4247940;27;20499;-81
2023/10/19 02:14:43;;;;;;;14.32;9.00;;;8.60;99.90;;;;;;4214445;28;20121;-81
2023/10/19 02:16:52;;;;;;;14.88;8.88;;;7.90;99.90;;;;;;4248361;27;20047;-81
2023/10/19 02:18:53;;;;;;;17.08;9.55;;;8.00;99.90;;;;;;4248137;27;20767;-81
2023/10/19 02:20:54;;;;;;;14.35;9.05;;;8.10;99.90;;;;;;4232846;27;20047;-81
2023/10/19 02:22:57;;;;;;;17.15;9.23;;;8.30;99.90;;;;;;4228982;28;20062;-81
2023/10/19 02:24:58;;;;;;;19.40;9.43;;;7.90;99.90;;;;;;4215486;28;20048;-81
2023/10/19 02:27:01;;;;;;;15.52;8.50;;;8.40;99.90;;;;;;4247078;27;20071;-81
2023/10/19 02:29:07;;;;;;;16.55;8.93;;;8.00;99.90;;;;;;4233904;27;20115;-81
2023/10/19 02:31:14;;;;;;;17.20;9.57;;;8.50;99.90;;;;;;4245428;27;20039;-82
2023/10/19 02:33:16;;;;;;;15.35;8.63;;;8.00;99.90;;;;;;4235832;27;20436;-81
2023/10/19 02:35:18;;;;;;;15.82;9.23;;;8.50;99.90;;;;;;4244505;27;20458;-81
2023/10/19 02:37:19;;;;;;;14.55;7.95;;;8.00;99.90;;;;;;4231286;28;20047;-81
2023/10/19 02:39:20;;;;;;;17.38;9.43;;;8.20;99.90;;;;;;4236365;27;20126;-81
2023/10/19 02:41:21;;;;;;;14.02;8.82;;;8.10;99.90;;;;;;4243417;27;20061;-81
2023/10/19 02:43:23;;;;;;;15.90;8.65;;;8.00;99.90;;;;;;4218474;28;20118;-81
2023/10/19 02:45:24;;;;;;;15.25;9.00;;;8.00;99.90;;;;;;4242493;27;20492;-81
2023/10/19 02:47:28;;;;;;;16.92;8.80;;;8.50;99.90;;;;;;4237072;27;20039;-81
2023/10/19 02:49:29;;;;;;;14.55;8.07;;;8.40;99.90;;;;;;4242325;27;20036;-81
2023/10/19 02:51:31;;;;;;;15.10;8.60;;;8.30;99.90;;;;;;4231198;28;20055;-81
2023/10/19 02:53:32;;;;;;;14.00;7.60;;;7.90;99.90;;;;;;4219912;28;20434;-81
2023/10/19 02:55:33;;;;;;;16.17;8.75;;;8.40;99.90;;;;;;4241667;28;20457;-81
2023/10/19 02:57:34;;;;;;;12.65;7.50;;;8.60;99.90;;;;;;4238089;27;20039;-81
2023/10/19 02:59:35;;;;;;;15.50;8.43;;;8.10;99.90;;;;;;4222833;28;20043;-81
2023/10/19 03:01:36;;;;;;;12.68;7.50;;;7.90;99.90;;;;;;4238348;28;20031;-82
2023/10/19 03:03:37;;;;;;;14.23;7.95;;;8.20;99.90;;;;;;4247813;28;20043;-82
2023/10/19 03:05:39;;;;;;;13.05;7.22;;;8.30;99.90;;;;;;4252484;27;20047;-81
2023/10/19 03:07:44;;;;;;;14.45;7.15;;;7.90;99.90;;;;;;4247784;27;20046;-81
2023/10/19 03:09:54;;;;;;;13.75;7.85;;;8.30;99.90;;;;;;4245091;27;20039;-82
2023/10/19 03:12:00;;;;;;;12.35;6.95;;;7.90;99.90;;;;;;4235523;28;20400;-81
2023/10/19 03:14:04;;;;;;;14.00;7.45;;;8.30;99.90;;;;;;4235935;28;20059;-81
2023/10/19 03:16:08;;;;;;;12.77;7.57;;;7.90;99.90;;;;;;4224476;28;20047;-82
2023/10/19 03:18:09;;;;;;;11.52;6.60;;;7.90;99.90;;;;;;4248380;27;20086;-81
2023/10/19 03:20:11;;;;;;;13.25;7.18;;;8.20;99.90;;;;;;4224091;28;20039;-81
2023/10/19 03:22:11;;;;;;;13.77;7.75;;;7.90;99.90;;;;;;4249060;27;20035;-81
2023/10/19 03:24:13;;;;;;;14.48;7.57;;;7.90;99.90;;;;;;4206800;28;20083;-81
2023/10/19 03:26:30;;;;;;;10.90;7.15;;;8.50;99.90;;;;;;4230887;28;20048;-81
2023/10/19 03:28:35;;;;;;;12.77;7.15;;;8.10;99.90;;;;;;4239004;27;20526;-81
2023/10/19 03:30:40;;;;;;;12.57;6.90;;;8.10;99.90;;;;;;4234000;28;20051;-81
2023/10/19 03:32:41;;;;;;;11.32;7.13;;;7.90;99.90;;;;;;4237060;27;20054;-81
2023/10/19 03:34:47;;;;;;;13.75;6.75;;;8.40;99.90;;;;;;4253209;27;20486;-81
2023/10/19 03:36:48;;;;;;;11.88;7.55;;;7.90;99.90;;;;;;4236933;28;20085;-81
2023/10/19 03:38:51;;;;;;;11.50;6.43;;;8.30;99.90;;;;;;4237222;27;20456;-81
2023/10/19 03:40:59;;;;;;;12.10;6.93;;;7.90;99.90;;;;;;4253231;27;20100;-81
2023/10/19 03:43:05;;;;;;;12.55;6.47;;;8.40;99.90;;;;;;4239062;27;20051;-81
2023/10/19 03:45:13;;;;;;;11.35;6.50;;;8.00;99.90;;;;;;4250685;27;20052;-81
2023/10/19 03:47:34;;;;;;;11.52;6.90;;;7.90;99.90;;;;;;4240602;27;20440;-81
2023/10/19 03:49:36;;;;;;;10.05;5.78;;;8.50;99.90;;;;;;4230731;28;20043;-82
2023/10/19 03:51:49;;;;;;;9.27;6.13;;;7.90;99.90;;;;;;4218752;28;20047;-81
2023/10/19 03:53:54;;;;;;;8.82;5.60;;;8.00;99.90;;;;;;4245634;27;20091;-81
2023/10/19 03:55:55;;;;;;;10.38;6.05;;;8.30;99.90;;;;;;4243901;27;20040;-81
2023/10/19 03:57:56;;;;;;;12.98;5.50;;;8.50;99.90;;;;;;4239053;27;20038;-81
2023/10/19 03:59:57;;;;;;;11.65;5.70;;;8.00;99.90;;;;;;4246709;27;20439;-82
2023/10/19 04:01:59;;;;;;;10.40;5.65;;;8.40;99.90;;;;;;4253818;27;20077;-81
2023/10/19 04:04:01;;;;;;;8.20;5.38;;;8.20;99.90;;;;;;4234662;28;20063;-81
2023/10/19 04:06:03;;;;;;;11.43;6.07;;;7.90;99.90;;;;;;4242647;27;20044;-81
2023/10/19 04:08:13;;;;;;;9.48;5.57;;;8.00;99.90;;;;;;4247691;27;20039;-81
2023/10/19 04:10:29;;;;;;;;;;;8.00;99.90;;;;;;4253581;27;20508;-81
2023/10/19 04:12:31;;;;;;;8.60;5.20;;;8.00;99.90;;;;;;4220513;28;19924;-82
2023/10/19 04:14:31;;;;;;;10.02;6.38;;;8.00;99.90;;;;;;4237205;27;20092;-81
2023/10/19 04:16:37;;;;;;;9.60;5.75;;;8.00;99.90;;;;;;4232415;28;20081;-81
2023/10/19 04:18:38;;;;;;;8.95;5.53;;;8.00;99.90;;;;;;4234960;27;20043;-81
2023/10/19 04:20:54;;;;;;;8.88;5.45;;;8.40;99.90;;;;;;4231240;28;20040;-82
2023/10/19 04:23:06;;;;;;;10.93;5.75;;;8.20;99.90;;;;;;4235043;27;20123;-82
2023/10/19 04:25:07;;;;;;;9.43;5.32;;;8.00;99.90;;;;;;4247637;27;20538;-82
2023/10/19 04:27:08;;;;;;;8.43;5.13;;;8.00;99.90;;;;;;4236477;27;20046;-82
2023/10/19 04:29:13;;;;;;;7.60;4.90;;;8.00;99.90;;;;;;4247391;27;20059;-82
2023/10/19 04:31:14;;;;;;;10.27;5.75;;;8.00;99.90;;;;;;4237275;27;20043;-82
2023/10/19 04:33:16;;;;;;;7.65;5.20;;;8.20;99.90;;;;;;4246461;27;20039;-82
2023/10/19 04:35:24;;;;;;;8.73;5.20;;;8.00;99.90;;;;;;4237941;27;20039;-81
2023/10/19 04:37:24;;;;;;;6.88;4.63;;;8.00;99.90;;;;;;4244807;27;20047;-81
2023/10/19 04:39:25;;;;;;;8.05;4.35;;;8.00;99.90;;;;;;4238768;27;20398;-81
2023/10/19 04:41:28;;;;;;;8.13;4.60;;;8.00;99.90;;;;;;4226805;28;20046;-81
2023/10/19 04:43:29;;;;;;;7.07;4.55;;;8.30;99.90;;;;;;4239577;27;20070;-81
2023/10/19 04:45:30;;;;;;;6.47;4.47;;;8.00;99.90;;;;;;4244043;27;20060;-81
2023/10/19 04:47:35;;;;;;;6.93;4.38;;;8.60;99.90;;;;;;4239331;27;20039;-81
2023/10/19 04:49:36;;;;;;;6.28;3.80;;;8.00;99.90;;;;;;4243173;27;20476;-81
2023/10/19 04:51:38;;;;;;;7.00;4.65;;;8.10;99.90;;;;;;4240750;27;20062;-81
2023/10/19 04:53:39;;;;;;;6.03;4.03;;;8.10;99.90;;;;;;4242846;27;20047;-81
2023/10/19 04:55:40;;;;;;;6.28;4.30;;;8.00;99.90;;;;;;4222680;28;20559;-81
2023/10/19 04:57:41;;;;;;;6.75;4.53;;;8.40;99.90;;;;;;4242059;27;20036;-81
2023/10/19 04:59:45;;;;;;;6.90;4.22;;;8.10;99.90;;;;;;4241156;27;20042;-81
2023/10/19 05:01:47;;;;;;;7.25;4.43;;;8.40;99.90;;;;;;4242189;27;20040;-81
2023/10/19 05:03:47;;;;;;;6.95;4.05;;;8.00;99.90;;;;;;4241002;27;20118;-81
2023/10/19 05:05:48;;;;;;;8.23;5.22;;;8.10;99.90;;;;;;4243795;27;20060;-80
2023/10/19 05:07:50;;;;;;;7.00;4.47;;;8.20;99.90;;;;;;4240989;27;20035;-80
2023/10/19 05:09:50;;;;;;;7.03;4.45;;;8.30;99.90;;;;;;4240456;27;20047;-80
2023/10/19 05:11:52;;;;;;;6.63;4.07;;;8.40;99.90;;;;;;4242031;27;20043;-80
2023/10/19 05:13:52;;;;;;;6.05;3.97;;;8.10;99.90;;;;;;4240288;27;20036;-80
2023/10/19 05:15:58;;;;;;;6.93;4.25;;;8.10;99.90;;;;;;4233228;28;20051;-80
2023/10/19 05:17:59;;;;;;;8.52;4.43;;;8.50;99.90;;;;;;4243141;27;20047;-81
2023/10/19 05:20:01;;;;;;;7.07;4.55;;;8.30;99.90;;;;;;4243229;27;20054;-80
2023/10/19 05:22:05;;;;;;;6.30;3.95;;;8.10;99.90;;;;;;4238474;27;20032;-80
2023/10/19 05:24:07;;;;;;;7.45;4.30;;;8.10;99.90;;;;;;4243761;27;20051;-81
2023/10/19 05:26:07;;;;;;;6.20;3.65;;;8.10;99.90;;;;;;4219463;28;20453;-80
2023/10/19 05:28:09;;;;;;;5.68;3.67;;;8.30;99.90;;;;;;4243662;27;20095;-80
2023/10/19 05:30:10;;;;;;;6.18;3.90;;;8.20;99.90;;;;;;4237232;27;20048;-80
2023/10/19 05:32:11;;;;;;;5.82;3.40;;;8.10;99.90;;;;;;4244271;27;20039;-81
2023/10/19 05:34:12;;;;;;;6.13;3.50;;;8.40;99.90;;;;;;4249204;27;20406;-80
2023/10/19 05:36:14;;;;;;;5.20;3.42;;;8.10;99.90;;;;;;4237093;27;20044;-80
2023/10/19 05:38:15;;;;;;;5.88;3.50;;;8.20;99.90;;;;;;4244881;27;20212;-80
2023/10/19 05:40:17;;;;;;;5.55;3.45;;;8.10;99.90;;;;;;4236247;27;20047;-81
2023/10/19 05:42:18;;;;;;;4.50;3.03;;;8.20;99.90;;;;;;4244916;27;20051;-80
2023/10/19 05:44:19;;;;;;;4.63;2.60;;;8.40;99.90;;;;;;4235646;27;20040;-80
2023/10/19 05:46:21;;;;;;;4.55;2.92;;;8.20;99.90;;;;;;4245396;27;20511;-80
2023/10/19 05:48:25;;;;;;;3.72;2.35;;;8.20;99.90;;;;;;4235394;27;20183;-80
2023/10/19 05:50:28;;;;;;;4.13;2.47;;;8.70;99.90;;;;;;4245664;27;20116;-81
2023/10/19 05:52:29;;;;;;;4.45;2.67;;;8.20;99.90;;;;;;4234213;27;20048;-80
2023/10/19 05:54:30;;;;;;;3.38;2.30;;;8.20;99.90;;;;;;4246643;27;20035;-81
2023/10/19 05:56:31;;;;;;;4.13;2.28;;;8.60;99.90;;;;;;4234030;27;20043;-80
2023/10/19 05:58:32;;;;;;;4.25;2.58;;;8.60;99.90;;;;;;4246868;27;20387;-81
2023/10/19 06:00:32;;;;;;;4.13;2.58;;;8.20;99.90;;;;;;4248802;27;20197;-80
2023/10/19 06:02:34;;;;;;;4.15;2.55;;;8.20;99.90;;;;;;4233654;27;20051;-80
2023/10/19 06:04:37;;;;;;;3.50;2.28;;;8.60;99.90;;;;;;4211847;28;20039;-81
2023/10/19 06:06:38;;;;;;;3.55;2.30;;;8.30;99.90;;;;;;4215109;28;20032;-81
2023/10/19 06:08:40;;;;;;;3.50;2.20;;;8.20;99.90;;;;;;4229640;28;20100;-81
2023/10/19 06:10:42;;;;;;;3.15;2.15;;;8.50;99.90;;;;;;4214376;28;20052;-81
2023/10/19 06:12:44;;;;;;;3.15;2.22;;;8.10;99.90;;;;;;4229460;28;20052;-81
2023/10/19 06:14:45;;;;;;;3.78;2.72;;;8.60;99.90;;;;;;4213455;28;20036;-81
2023/10/19 06:16:46;;;;;;;2.47;1.90;;;8.20;99.90;;;;;;4248469;27;20081;-81
2023/10/19 06:18:46;;;;;;;3.17;2.08;;;8.10;99.90;;;;;;4248721;27;20050;-81
2023/10/19 06:20:50;;;;;;;3.53;2.40;;;8.40;99.90;;;;;;4232771;28;20051;-81
2023/10/19 06:22:56;;;;;;;3.80;2.22;;;8.10;99.90;;;;;;4230980;28;20122;-81
2023/10/19 06:24:58;;;;;;;2.80;1.67;;;8.10;99.90;;;;;;4262975;27;20048;-81
2023/10/19 06:26:58;;;;;;;2.67;1.75;;;8.50;99.90;;;;;;4240891;27;20502;-81
2023/10/19 06:28:59;;;;;;;4.55;2.50;;;8.10;99.90;;;;;;4246658;27;20043;-81
2023/10/19 06:31:00;;;;;;;3.38;2.13;;;8.30;99.90;;;;;;4233069;27;20047;-81
2023/10/19 06:33:02;;;;;;;3.60;1.95;;;8.10;99.90;;;;;;4246353;27;20078;-81
2023/10/19 06:35:03;;;;;;;3.63;2.00;;;8.20;99.90;;;;;;4233936;28;20043;-81
2023/10/19 06:37:08;;;;;;;2.70;1.75;;;8.20;99.90;;;;;;4245977;27;20047;-82
2023/10/19 06:39:13;;;;;;;3.30;2.10;;;8.10;99.90;;;;;;4234240;27;20047;-81
2023/10/19 06:41:15;;;;;;;2.63;1.70;;;8.10;99.90;;;;;;4225846;28;20028;-81
2023/10/19 06:43:15;;;;;;;2.60;1.50;;;8.50;99.90;;;;;;4200501;28;20060;-81
2023/10/19 06:45:18;;;;;;;2.97;2.10;;;8.50;99.90;;;;;;4243679;27;20035;-82
2023/10/19 06:47:20;;;;;;;2.00;1.70;;;8.10;99.90;;;;;;4236335;27;20035;-81
2023/10/19 06:49:21;;;;;;;2.45;1.65;;;8.20;99.90;;;;;;4243058;27;20511;-81
2023/10/19 06:51:21;;;;;;;2.75;1.83;;;8.60;99.90;;;;;;4213032;28;20131;-81
2023/10/19 06:53:22;;;;;;;3.03;1.83;;;8.70;99.90;;;;;;4214644;28;20051;-81
2023/10/19 06:55:23;;;;;;;2.80;2.13;;;8.10;99.90;;;;;;4214465;28;20044;-81
2023/10/19 06:57:24;;;;;;;4.28;1.98;;;8.20;99.90;;;;;;4229820;28;20035;-81
2023/10/19 06:59:24;;;;;;;2.58;1.73;;;8.20;99.90;;;;;;4214679;28;20047;-81
2023/10/19 07:01:29;;;;;;;2.70;1.77;;;8.30;99.90;;;;;;4214489;28;20056;-81
2023/10/19 07:03:30;;;;;;;2.85;1.88;;;8.20;99.90;;;;;;4212642;28;20075;-81
2023/10/19 07:05:31;;;;;;;2.45;1.63;;;8.60;99.90;;;;;;4214455;28;20400;-81
2023/10/19 07:07:31;;;;;;;2.17;1.67;;;8.40;99.90;;;;;;4214491;28;20044;-81
2023/10/19 07:09:34;;;;;;;3.00;1.83;;;8.50;99.90;;;;;;4214393;28;20428;-81
2023/10/19 07:11:35;;;;;;;2.97;1.77;;;8.80;99.90;;;;;;4214458;28;20040;-81
2023/10/19 07:13:36;;;;;;;2.60;1.67;;;8.40;99.90;;;;;;4213158;28;20477;-81
2023/10/19 07:15:36;;;;;;;2.67;1.77;;;8.60;99.90;;;;;;4214843;28;20040;-81
2023/10/19 07:17:40;;;;;;;2.85;1.80;;;8.20;99.90;;;;;;4214281;28;20381;-81
2023/10/19 07:19:44;;;;;;;2.90;1.60;;;8.20;99.90;;;;;;4213126;28;20093;-80
2023/10/19 07:21:48;;;;;;;3.83;1.90;;;8.40;99.90;;;;;;4214786;28;20132;-80
2023/10/19 07:23:53;;;;;;;2.78;1.65;;;8.20;99.90;;;;;;4222863;28;20040;-80
2023/10/19 07:25:55;;;;;;;1.67;1.38;;;8.70;99.90;;;;;;4211714;28;20044;-80
2023/10/19 07:27:59;;;;;;;2.88;1.50;;;8.30;99.90;;;;;;4207574;28;20048;-80
2023/10/19 07:30:06;;;;;;;1.38;1.23;;;8.40;99.90;;;;;;4214168;28;20056;-79
2023/10/19 07:32:11;;;;;;;2.05;1.48;;;8.20;99.90;;;;;;4197723;28;20059;-81
2023/10/19 07:34:15;;;;;;;1.58;1.30;;;8.30;99.90;;;;;;4209098;28;20075;-81
2023/10/19 07:36:18;;;;;;;1.73;1.20;;;8.50;99.90;;;;;;4204389;28;20048;-81
2023/10/19 07:38:22;;;;;;;1.60;1.35;;;8.60;99.90;;;;;;4198188;28;20433;-81
2023/10/19 07:40:25;;;;;;;3.47;1.50;;;8.70;99.90;;;;;;4210840;28;20059;-81
2023/10/19 07:42:26;;;;;;;3.17;1.70;;;8.30;99.90;;;;;;4212290;28;20036;-81
2023/10/19 07:44:30;;;;;;;2.15;1.60;;;8.60;99.90;;;;;;4210117;28;20056;-81
2023/10/19 07:46:31;;;;;;;2.63;1.60;;;8.30;99.90;;;;;;4214116;28;20048;-81
2023/10/19 07:48:32;;;;;;;1.85;1.70;;;8.30;99.90;;;;;;4213880;28;20075;-81
2023/10/19 07:50:34;;;;;;;3.65;1.35;;;8.30;99.90;;;;;;4222333;28;20063;-81
2023/10/19 07:52:35;;;;;;;2.90;1.60;;;8.30;99.90;;;;;;4248113;27;20114;-81
2023/10/19 07:54:37;;;;;;;2.80;1.85;;;8.40;99.90;;;;;;4249104;27;20071;-81
2023/10/19 07:56:39;;;;;;;1.48;1.23;;;8.60;99.90;;;;;;4215742;28;20111;-80
2023/10/19 07:58:41;;;;;;;2.95;1.92;;;8.30;99.90;;;;;;4248360;27;20896;-80
2023/10/19 08:00:42;;;;;;;2.38;1.55;;;8.60;99.90;;;;;;4250265;27;20054;-80
2023/10/19 08:02:46;;;;;;;1.75;1.40;;;8.30;99.90;;;;;;4234375;27;20047;-80
2023/10/19 08:04:47;;;;;;;3.00;2.10;;;8.70;99.90;;;;;;4235579;27;20128;-81
2023/10/19 08:06:47;;;;;;;5.07;3.10;;;8.70;99.90;;;;;;4250408;27;20538;-81
2023/10/19 08:08:48;;;;;;;7.07;4.72;;;8.30;99.90;;;;;;4215901;28;20054;-80
2023/10/19 08:10:49;;;;;;;3.58;2.22;;;8.70;99.90;;;;;;4231706;28;20075;-81
2023/10/19 08:12:51;;;;;;;1.70;1.60;;;8.30;99.90;;;;;;4234413;27;20441;-81
2023/10/19 08:14:55;;;;;;;1.80;1.42;;;8.40;99.90;;;;;;4249128;27;20112;-80
2023/10/19 08:16:57;;;;;;;9.25;3.85;;;8.30;99.90;;;;;;4235140;27;20124;-80
2023/10/19 08:18:58;;;;;;;2.90;2.10;;;8.30;99.90;;;;;;4248913;27;20043;-81
2023/10/19 08:20:58;;;;;;;2.65;1.85;;;8.60;99.90;;;;;;4235311;27;20038;-80
2023/10/19 08:23:03;;;;;;;4.15;2.60;;;8.70;99.90;;;;;;4248418;27;20196;-79
2023/10/19 08:25:11;;;;;;;47.97;15.25;;;8.60;99.90;;;;;;4236058;27;20122;-79
2023/10/19 08:27:12;;;;;;;15.85;5.28;;;8.30;99.90;;;;;;4246554;27;20036;-81
2023/10/19 08:29:13;;;;;;;42.15;17.98;;;8.30;99.90;;;;;;4237496;27;20094;-80
2023/10/19 08:31:14;;;;;;;40.00;14.68;;;8.80;99.90;;;;;;4239141;27;20027;-80
2023/10/19 08:33:15;;;;;;;13.55;5.85;;;8.60;99.90;;;;;;4239463;27;20612;-80
2023/10/19 08:35:25;;;;;;;8.23;4.38;;;8.80;99.90;;;;;;4238450;27;20074;-80
2023/10/19 08:37:26;;;;;;;23.60;9.60;;;8.40;99.90;;;;;;4244363;27;20145;-80
2023/10/19 08:39:27;;;;;;;3.30;2.38;;;8.40;99.90;;;;;;4238814;27;20035;-80
2023/10/19 08:41:27;;;;;;;2.15;1.83;;;8.70;99.90;;;;;;4208913;28;20039;-80
2023/10/19 08:43:28;;;;;;;7.28;3.78;;;8.40;99.90;;;;;;4238891;27;20039;-80
2023/10/19 08:45:30;;;;;;;2.97;2.22;;;8.30;99.90;;;;;;4243688;27;20039;-80
2023/10/19 08:47:31;;;;;;;5.47;2.15;;;8.30;99.90;;;;;;4239069;27;20047;-80
2023/10/19 08:49:32;;;;;;;2.85;2.10;;;8.40;99.90;;;;;;4224659;28;20522;-80
2023/10/19 08:51:33;;;;;;;3.03;2.45;;;8.30;99.90;;;;;;4199387;28;20048;-85
2023/10/19 08:53:40;;;;;;;3.35;2.42;;;8.30;99.90;;;;;;4206346;28;20048;-84
2023/10/19 08:55:43;;;;;;;4.03;2.60;;;8.40;99.90;;;;;;4216539;28;20496;-84
2023/10/19 08:57:48;;;;;;;6.60;2.53;;;8.60;99.90;;;;;;4216525;28;20396;-84
2023/10/19 08:59:49;;;;;;;3.10;2.45;;;8.50;99.90;;;;;;4216583;28;20044;-84
2023/10/19 09:01:49;;;;;;;3.55;2.28;;;8.60;99.90;;;;;;4209087;28;20040;-84
2023/10/19 09:03:51;;;;;;;4.75;2.72;;;8.80;99.90;;;;;;4211422;28;20116;-84
2023/10/19 09:05:52;;;;;;;3.15;2.25;;;8.40;99.90;;;;;;4216832;28;20040;-84
2023/10/19 09:07:56;;;;;;;3.90;2.33;;;8.40;99.90;;;;;;4215600;28;20047;-84
2023/10/19 09:09:57;;;;;;;3.65;2.53;;;8.90;99.90;;;;;;4213635;28;20114;-84
2023/10/19 09:11:58;;;;;;;3.40;2.28;;;8.90;99.90;;;;;;4203599;28;20044;-84
2023/10/19 09:13:59;;;;;;;6.22;3.95;;;8.50;99.90;;;;;;4205375;28;20047;-85
2023/10/19 09:16:05;;;;;;;15.63;6.75;;;8.50;99.90;;;;;;4212506;28;20055;-84
2023/10/19 09:18:17;;;;;;;5.25;3.70;;;8.50;99.90;;;;;;4215793;28;20110;-84
2023/10/19 09:20:27;;;;;;;10.10;3.95;;;8.50;99.90;;;;;;4216460;28;20044;-84
2023/10/19 09:22:36;;;;;;;8.52;3.97;;;8.50;99.90;;;;;;4216536;28;20051;-84
2023/10/19 09:24:37;;;;;;;4.10;2.78;;;8.50;99.90;;;;;;4207502;28;20089;-84
2023/10/19 09:26:39;;;;;;;8.52;4.13;;;8.50;99.90;;;;;;4209099;28;20447;-84
2023/10/19 09:28:41;;;;;;;18.50;8.65;;;8.60;99.90;;;;;;4215507;28;20185;-84
2023/10/19 09:30:43;;;;;;;3.67;2.45;;;8.60;99.90;;;;;;4215051;28;20416;-85
2023/10/19 09:32:49;;;;;;;8.27;4.35;;;8.60;99.90;;;;;;4208934;28;20050;-84
2023/10/19 09:34:52;;;;;;;3.05;2.17;;;9.10;99.90;;;;;;4200401;28;20048;-85
2023/10/19 09:36:53;;;;;;;9.23;6.18;;;9.00;99.90;;;;;;4215912;28;20070;-84
2023/10/19 09:38:57;;;;;;;4.03;2.92;;;9.10;99.90;;;;;;4215665;28;20048;-84
2023/10/19 09:41:00;;;;;;;3.60;2.70;;;9.20;99.90;;;;;;4216003;28;20061;-85
2023/10/19 09:43:07;;;;;;;3.55;2.70;;;8.80;99.90;;;;;;4213599;28;20459;-83
2023/10/19 09:45:10;;;;;;;4.88;2.20;;;9.20;99.90;;;;;;4202348;28;20108;-84
2023/10/19 09:47:35;;;;;;;3.40;2.45;;;8.60;99.90;;;;;;4211917;28;20071;-84
2023/10/19 09:49:36;;;;;;;4.38;3.67;;;8.60;99.90;;;;;;4203786;28;20040;-84
2023/10/19 09:51:38;;;;;;;2.67;2.15;;;8.60;99.90;;;;;;4221371;28;20035;-85
2023/10/19 09:53:42;;;;;;;4.68;2.30;;;8.70;99.90;;;;;;4247351;27;20496;-85
2023/10/19 09:55:46;;;;;;;5.78;3.00;;;8.70;99.90;;;;;;4222827;28;20048;-85
2023/10/19 09:57:53;;;;;;;3.55;2.53;;;8.60;99.90;;;;;;4241095;27;20507;-83
2023/10/19 10:00:11;;;;;;;3.00;2.40;;;9.50;99.90;;;;;;4239774;27;20709;-84
2023/10/19 10:02:14;;;;;;;3.28;2.40;;;8.60;99.90;;;;;;4244620;27;20039;-85
2023/10/19 10:04:48;;;;;;;5.88;2.47;;;8.90;99.90;;;;;;4236305;27;20040;-82
2023/10/19 10:06:54;;;;;;;5.03;2.60;;;8.70;99.90;;;;;;4198143;27;20123;-82
2023/10/19 10:08:56;;;;;;;4.90;3.10;;;8.80;99.90;;;;;;4247365;27;20479;-82
2023/10/19 10:10:57;;;;;;;4.57;3.05;;;8.80;99.90;;;;;;4233232;27;20179;-82
2023/10/19 10:13:23;;;;;;;5.40;3.13;;;8.80;99.90;;;;;;4247046;27;20047;-82
2023/10/19 10:15:40;;;;;;;7.07;4.43;;;8.80;99.90;;;;;;4236321;27;20046;-82
2023/10/19 10:17:41;;;;;;;4.53;3.00;;;9.00;99.90;;;;;;4240716;27;20514;-81
2023/10/19 10:19:42;;;;;;;4.38;2.85;;;8.90;99.90;;;;;;4219024;28;20043;-81
2023/10/19 10:22:04;;;;;;;3.95;2.80;;;9.00;99.90;;;;;;4240489;27;20032;-82
2023/10/19 10:24:05;;;;;;;3.95;2.95;;;8.90;99.90;;;;;;4224724;28;20122;-82
2023/10/19 10:26:08;;;;;;;3.80;2.92;;;8.90;99.90;;;;;;4248435;27;20842;-83
2023/10/19 10:28:14;;;;;;;3.95;2.97;;;8.90;99.90;;;;;;4248925;27;20043;-82
2023/10/19 10:30:15;;;;;;;3.45;2.53;;;9.10;99.90;;;;;;4230309;28;20043;-82
2023/10/19 10:32:45;;;;;;;6.15;3.10;;;9.00;99.90;;;;;;4235769;27;20048;-82
2023/10/19 10:34:49;;;;;;;5.45;2.95;;;8.90;99.90;;;;;;4213453;28;20047;-82
2023/10/19 10:37:03;;;;;;;4.07;3.30;;;9.10;99.90;;;;;;4248457;27;20122;-82
2023/10/19 10:39:14;;;;;;;5.32;3.17;;;9.00;99.90;;;;;;4216067;28;20048;-82
2023/10/19 10:41:29;;;;;;;5.80;2.83;;;9.00;99.90;;;;;;4244616;27;20046;-82
2023/10/19 10:43:30;;;;;;;4.20;3.13;;;9.00;99.90;;;;;;4237816;27;20510;-82
2023/10/19 10:45:31;;;;;;;10.00;4.72;;;9.00;99.90;;;;;;4241932;27;20512;-83
2023/10/19 10:47:33;;;;;;;4.65;3.10;;;9.00;99.90;;;;;;4238644;27;20050;-82
2023/10/19 10:49:48;;;;;;;6.70;2.70;;;9.00;99.90;;;;;;4241139;27;20047;-82
2023/10/19 10:51:49;;;;;;;4.15;3.13;;;9.00;99.90;;;;;;4240350;27;20491;-82
2023/10/19 10:53:52;;;;;;;3.58;3.03;;;9.20;99.90;;;;;;4228506;28;20123;-82
2023/10/19 10:55:53;;;;;;;10.52;6.28;;;9.00;99.90;;;;;;4248142;27;20128;-81